createdAt,value
2018-02-20T00:01:22.937Z,-3.00
2018-02-20T00:04:32.989Z,-3.00
2018-02-20T00:07:42.960Z,-3.10
2018-02-20T00:10:52.895Z,-3.10
2018-02-20T00:14:02.761Z,-3.10
2018-02-20T00:17:12.744Z,-3.10
2018-02-20T00:20:22.667Z,-3.10
2018-02-20T00:23:32.847Z,-3.10
2018-02-20T00:26:44.098Z,-3.10
2018-02-20T00:29:54.485Z,-3.20
2018-02-20T00:33:05.617Z,-3.10
2018-02-20T00:36:15.705Z,-3.10
2018-02-20T00:39:25.768Z,-3.00
2018-02-20T00:42:35.903Z,-3.20
2018-02-20T00:45:46.237Z,-3.20
2018-02-20T00:48:56.335Z,-3.30
2018-02-20T00:52:07.901Z,-3.30
2018-02-20T00:55:18.614Z,-3.30
2018-02-20T00:58:28.975Z,-3.30
2018-02-20T01:01:39.100Z,-3.30
2018-02-20T01:04:48.922Z,-3.30
2018-02-20T01:07:59.918Z,-3.30
2018-02-20T01:11:09.802Z,-3.30
2018-02-20T01:14:20.479Z,-3.30
2018-02-20T01:17:30.656Z,-3.30
2018-02-20T01:20:41.254Z,-3.40
2018-02-20T01:23:51.733Z,-3.40
2018-02-20T01:27:02.681Z,-3.40
2018-02-20T01:30:13.070Z,-3.40
2018-02-20T01:33:23.415Z,-3.50
2018-02-20T01:36:33.379Z,-3.50
2018-02-20T01:39:43.365Z,-3.50
2018-02-20T01:42:53.362Z,-3.50
2018-02-20T01:46:03.690Z,-3.40
2018-02-20T01:49:14.241Z,-3.40
2018-02-20T01:52:24.806Z,-3.50
2018-02-20T01:55:34.879Z,-3.50
2018-02-20T01:58:45.714Z,-3.60
2018-02-20T02:01:56.439Z,-3.60
2018-02-20T02:05:06.277Z,-3.60
2018-02-20T02:08:16.655Z,-3.60
2018-02-20T02:11:27.373Z,-3.70
2018-02-20T02:14:38.116Z,-3.60
2018-02-20T02:17:48.286Z,-3.60
2018-02-20T02:20:58.444Z,-3.70
2018-02-20T02:24:09.311Z,-3.70
2018-02-20T02:27:19.606Z,-3.70
2018-02-20T02:30:29.729Z,-3.70
2018-02-20T02:33:39.798Z,-3.80
2018-02-20T02:36:49.744Z,-3.80
2018-02-20T02:40:01.202Z,-3.80
2018-02-20T02:43:11.228Z,-3.80
2018-02-20T02:46:21.185Z,-3.80
2018-02-20T02:49:31.170Z,-3.90
2018-02-20T02:52:41.180Z,-3.70
2018-02-20T02:55:52.327Z,-3.80
2018-02-20T02:59:02.458Z,-3.80
2018-02-20T03:02:12.798Z,-3.80
2018-02-20T03:05:24.271Z,-3.80
2018-02-20T03:08:35.372Z,-3.70
2018-02-20T03:11:45.479Z,-3.80
2018-02-20T03:14:55.495Z,-3.80
2018-02-20T03:18:05.413Z,-3.80
2018-02-20T03:21:15.444Z,-3.80
2018-02-20T03:24:25.896Z,-3.90
2018-02-20T03:27:36.597Z,-3.80
2018-02-20T03:30:47.325Z,-3.90
2018-02-20T03:33:58.493Z,-3.80
2018-02-20T03:37:08.519Z,-3.80
2018-02-20T03:40:18.450Z,-3.80
2018-02-20T03:43:28.454Z,-3.70
2018-02-20T03:46:38.535Z,-3.70
2018-02-20T03:49:48.463Z,-3.70
2018-02-20T03:52:59.042Z,-3.80
2018-02-20T03:56:09.224Z,-3.80
2018-02-20T03:59:19.295Z,-3.90
2018-02-20T04:02:29.242Z,-3.90
2018-02-20T04:05:39.283Z,-3.90
2018-02-20T04:08:49.246Z,-3.90
2018-02-20T04:11:59.316Z,-3.80
2018-02-20T04:15:09.308Z,-3.80
2018-02-20T04:18:19.446Z,-3.90
2018-02-20T04:21:30.831Z,-3.90
2018-02-20T04:24:40.983Z,-3.90
2018-02-20T04:27:50.990Z,-3.90
2018-02-20T04:31:00.886Z,-3.90
2018-02-20T04:34:11.558Z,-3.90
2018-02-20T04:37:21.737Z,-3.80
2018-02-20T04:40:31.675Z,-3.80
2018-02-20T04:43:42.894Z,-3.80
2018-02-20T04:46:53.136Z,-3.80
2018-02-20T04:50:03.064Z,-3.80
2018-02-20T04:53:12.976Z,-3.80
2018-02-20T04:56:22.816Z,-3.80
2018-02-20T04:59:32.723Z,-3.70
2018-02-20T05:02:42.667Z,-3.70
2018-02-20T05:05:52.465Z,-3.70
2018-02-20T05:09:02.341Z,-3.70
2018-02-20T05:12:12.333Z,-3.70
2018-02-20T05:15:22.731Z,-3.70
2018-02-20T05:18:33.096Z,-3.70
2018-02-20T05:21:43.609Z,-3.70
2018-02-20T05:24:53.753Z,-3.70
2018-02-20T05:28:04.071Z,-3.70
2018-02-20T05:31:13.865Z,-3.70
2018-02-20T05:34:23.842Z,-3.70
2018-02-20T05:37:34.079Z,-3.70
2018-02-20T05:40:44.560Z,-3.70
2018-02-20T05:43:56.750Z,-3.70
2018-02-20T05:47:07.202Z,-3.70
2018-02-20T05:50:17.256Z,-3.60
2018-02-20T05:53:27.112Z,-3.70
2018-02-20T05:56:37.123Z,-3.70
2018-02-20T05:59:47.900Z,-3.70
2018-02-20T06:02:58.543Z,-3.80
2018-02-20T06:06:09.008Z,-3.80
2018-02-20T06:09:19.414Z,-3.80
2018-02-20T06:12:29.353Z,-3.80
2018-02-20T06:15:39.991Z,-3.80
2018-02-20T06:18:51.074Z,-3.80
2018-02-20T06:22:01.993Z,-3.80
2018-02-20T06:25:12.235Z,-3.80
2018-02-20T06:28:22.313Z,-3.80
2018-02-20T06:31:32.364Z,-3.80
2018-02-20T06:34:42.575Z,-3.80
2018-02-20T06:37:52.808Z,-3.80
2018-02-20T06:41:02.837Z,-3.90
2018-02-20T06:44:13.085Z,-3.90
2018-02-20T06:47:23.664Z,-3.90
2018-02-20T06:50:33.559Z,-3.80
2018-02-20T06:53:43.711Z,-3.90
2018-02-20T06:56:53.863Z,-3.90
2018-02-20T07:00:03.587Z,-3.90
2018-02-20T07:03:13.511Z,-3.80
2018-02-20T07:06:23.339Z,-3.80
2018-02-20T07:09:33.471Z,-3.80
2018-02-20T07:12:43.663Z,-3.90
2018-02-20T07:15:54.311Z,-3.90
2018-02-20T07:19:04.526Z,-3.90
2018-02-20T07:22:14.253Z,-3.90
2018-02-20T07:25:24.047Z,-3.90
2018-02-20T07:28:34.054Z,-3.90
2018-02-20T07:31:44.972Z,-4.10
2018-02-20T07:34:55.085Z,-4.00
2018-02-20T07:38:05.600Z,-4.10
2018-02-20T07:41:15.874Z,-4.00
2018-02-20T07:44:27.044Z,-4.10
2018-02-20T07:47:37.582Z,-4.10
2018-02-20T07:50:47.792Z,-4.00
2018-02-20T07:53:57.784Z,-4.00
2018-02-20T07:57:07.600Z,-3.90
2018-02-20T08:00:18.313Z,-3.80
2018-02-20T08:03:28.483Z,-3.80
2018-02-20T08:06:38.875Z,-3.70
2018-02-20T08:09:49.198Z,-3.60
2018-02-20T08:12:59.791Z,-3.50
2018-02-20T08:16:09.725Z,-3.40
2018-02-20T08:19:19.523Z,-3.30
2018-02-20T08:22:29.598Z,-3.30
2018-02-20T08:25:40.340Z,-3.20
2018-02-20T08:28:50.659Z,-3.20
2018-02-20T08:32:00.653Z,-3.20
2018-02-20T08:35:10.685Z,-3.20
2018-02-20T08:38:21.459Z,-3.20
2018-02-20T08:41:32.080Z,-3.30
2018-02-20T08:44:41.912Z,-3.20
2018-02-20T08:47:51.874Z,-3.20
2018-02-20T08:51:01.729Z,-3.20
2018-02-20T08:54:12.518Z,-3.20
2018-02-20T08:57:22.783Z,-3.20
2018-02-20T09:00:33.140Z,-3.10
2018-02-20T09:03:43.626Z,-3.00
2018-02-20T09:06:54.243Z,-2.90
2018-02-20T09:10:04.971Z,-2.60
2018-02-20T09:13:15.663Z,-2.60
2018-02-20T09:16:25.854Z,-2.50
2018-02-20T09:19:37.135Z,-2.30
2018-02-20T09:22:46.647Z,-2.30
2018-02-20T09:25:57.443Z,-2.10
2018-02-20T09:29:08.287Z,-2.10
2018-02-20T09:32:18.125Z,-2.00
2018-02-20T09:35:28.210Z,-1.90
2018-02-20T09:38:38.261Z,-1.80
2018-02-20T09:41:48.571Z,-1.70
2018-02-20T09:44:58.596Z,-1.60
2018-02-20T09:48:08.873Z,-1.50
2018-02-20T09:51:18.968Z,-1.40
2018-02-20T09:54:29.508Z,-1.30
2018-02-20T09:57:40.002Z,-1.40
2018-02-20T10:00:49.913Z,-1.20
2018-02-20T10:11:11.415Z,-0.70
2018-02-20T10:14:21.486Z,-0.60
2018-02-20T10:17:31.785Z,-0.40
2018-02-20T10:20:42.865Z,-0.30
2018-02-20T10:23:53.472Z,-0.30
2018-02-20T10:27:03.785Z,-0.40
2018-02-20T10:30:13.841Z,-0.30
2018-02-20T10:33:24.069Z,-0.30
2018-02-20T10:36:34.199Z,-0.30
2018-02-20T10:39:44.399Z,-0.30
2018-02-20T10:42:54.723Z,-0.30
2018-02-20T10:46:05.146Z,-0.10
2018-02-20T10:49:15.642Z,0.10
2018-02-20T10:52:25.580Z,0.20
2018-02-20T10:55:35.814Z,0.40
2018-02-20T10:58:46.021Z,0.60
2018-02-20T11:01:56.825Z,0.50
2018-02-20T11:05:07.658Z,0.50
2018-02-20T11:08:17.419Z,0.70
2018-02-20T11:11:27.553Z,0.70
2018-02-20T11:14:38.185Z,0.50
2018-02-20T11:17:48.028Z,0.80
2018-02-20T11:20:58.392Z,0.90
2018-02-20T11:24:08.569Z,0.50
2018-02-20T11:27:18.366Z,0.70
2018-02-20T11:30:28.147Z,0.70
2018-02-20T11:33:38.396Z,0.80
2018-02-20T11:36:48.268Z,0.90
2018-02-20T11:39:58.492Z,1.10
2018-02-20T11:43:09.551Z,1.10
2018-02-20T11:46:19.950Z,1.10
2018-02-20T11:49:30.590Z,1.40
2018-02-20T11:52:41.054Z,1.50
2018-02-20T11:55:50.819Z,1.40
2018-02-20T11:59:01.502Z,1.40
2018-02-20T12:02:11.767Z,1.60
2018-02-20T12:05:21.764Z,1.50
2018-02-20T12:08:37.027Z,1.50
2018-02-20T12:11:47.863Z,1.50
2018-02-20T12:14:58.761Z,1.80
2018-02-20T12:18:08.678Z,1.80
2018-02-20T12:21:19.166Z,2.00
2018-02-20T12:24:30.059Z,2.30
2018-02-20T12:27:40.837Z,2.30
2018-02-20T12:30:51.418Z,2.40
2018-02-20T12:34:01.652Z,2.50
2018-02-20T12:37:12.326Z,2.70
2018-02-20T12:40:22.704Z,2.70
2018-02-20T12:43:32.740Z,2.70
2018-02-20T12:46:43.276Z,2.60
2018-02-20T12:49:53.524Z,2.70
2018-02-20T12:53:03.522Z,2.80
2018-02-20T12:56:14.421Z,2.90
2018-02-20T12:59:24.981Z,3.00
2018-02-20T13:02:35.304Z,3.00
2018-02-20T13:05:45.559Z,3.20
2018-02-20T13:08:55.388Z,3.10
2018-02-20T13:12:06.698Z,3.10
2018-02-20T13:15:17.230Z,3.10
2018-02-20T13:18:27.189Z,3.20
2018-02-20T13:21:37.446Z,3.20
2018-02-20T13:24:48.368Z,3.30
2018-02-20T13:27:58.846Z,3.20
2018-02-20T13:31:09.813Z,3.20
2018-02-20T13:34:20.455Z,3.20
2018-02-20T13:37:31.274Z,3.10
2018-02-20T13:40:41.131Z,3.10
2018-02-20T13:43:51.405Z,3.00
2018-02-20T13:47:02.232Z,3.00
2018-02-20T13:50:12.421Z,3.00
2018-02-20T13:53:22.547Z,3.10
2018-02-20T13:56:33.206Z,3.10
2018-02-20T13:59:43.222Z,3.00
2018-02-20T14:02:53.426Z,3.00
2018-02-20T14:06:03.509Z,3.00
2018-02-20T14:09:13.557Z,2.90
2018-02-20T14:12:23.762Z,2.90
2018-02-20T14:15:34.468Z,3.00
2018-02-20T14:18:46.536Z,3.00
2018-02-20T14:21:57.322Z,2.70
2018-02-20T14:25:07.876Z,2.70
2018-02-20T14:28:18.473Z,2.90
2018-02-20T14:31:29.509Z,2.80
2018-02-20T14:34:40.616Z,2.80
2018-02-20T14:37:51.111Z,2.80
2018-02-20T14:41:01.243Z,2.80
2018-02-20T14:44:11.567Z,2.70
2018-02-20T14:47:21.534Z,2.80
2018-02-20T14:50:31.538Z,2.70
2018-02-20T14:53:41.663Z,2.60
2018-02-20T14:56:52.326Z,2.40
2018-02-20T15:00:02.145Z,2.20
2018-02-20T15:03:12.216Z,2.00
2018-02-20T15:06:23.470Z,1.80
2018-02-20T15:09:33.408Z,1.80
2018-02-20T15:12:43.850Z,1.80
2018-02-20T15:15:53.801Z,1.60
2018-02-20T15:19:04.938Z,1.30
2018-02-20T15:22:15.705Z,1.30
2018-02-20T15:25:25.839Z,1.20
2018-02-20T15:28:35.911Z,1.10
2018-02-20T15:31:45.957Z,1.10
2018-02-20T15:34:56.187Z,1.00
2018-02-20T15:38:06.425Z,1.00
2018-02-20T15:41:16.344Z,0.80
2018-02-20T15:44:26.340Z,0.80
2018-02-20T15:47:36.611Z,0.70
2018-02-20T15:50:47.243Z,0.70
2018-02-20T15:53:57.899Z,0.70
2018-02-20T15:57:08.527Z,0.80
2018-02-20T16:00:20.161Z,0.80
2018-02-20T16:03:31.506Z,0.80
2018-02-20T16:06:41.359Z,0.70
2018-02-20T16:09:51.493Z,0.70
2018-02-20T16:13:02.380Z,0.70
2018-02-20T16:16:17.052Z,0.60
2018-02-20T16:19:28.800Z,0.70
2018-02-20T16:22:39.130Z,0.70
2018-02-20T16:25:50.613Z,0.70
2018-02-20T16:29:01.346Z,0.60
2018-02-20T16:32:11.617Z,0.60
2018-02-20T16:35:22.673Z,0.60
2018-02-20T16:38:34.399Z,0.60
2018-02-20T16:41:45.424Z,0.60
2018-02-20T16:44:55.741Z,0.60
2018-02-20T16:48:06.630Z,0.50
2018-02-20T16:51:18.100Z,0.50
2018-02-20T16:54:29.815Z,0.50
2018-02-20T16:57:39.826Z,0.50
2018-02-20T17:00:51.032Z,0.40
2018-02-20T17:04:01.724Z,0.60
2018-02-20T17:07:11.663Z,0.60
2018-02-20T17:10:23.113Z,0.60
2018-02-20T17:13:33.378Z,0.50
2018-02-20T17:16:44.371Z,0.50
2018-02-20T17:19:54.776Z,0.60
2018-02-20T17:23:05.654Z,0.40
2018-02-20T17:26:15.934Z,0.50
2018-02-20T17:29:26.210Z,0.50
2018-02-20T17:32:37.029Z,0.50
2018-02-20T17:35:47.527Z,0.50
2018-02-20T17:38:57.796Z,0.50
2018-02-20T17:42:09.091Z,0.50
2018-02-20T17:45:19.734Z,0.50
2018-02-20T17:48:30.874Z,0.60
2018-02-20T17:51:41.269Z,0.60
2018-02-20T17:54:51.945Z,0.40
2018-02-20T17:58:02.657Z,0.30
2018-02-20T18:01:13.117Z,0.30
2018-02-20T18:04:26.945Z,0.20
2018-02-20T18:07:37.289Z,0.20
2018-02-20T18:10:47.224Z,0.20
2018-02-20T18:13:57.211Z,0.10
2018-02-20T18:17:07.288Z,0.10
2018-02-20T18:20:17.892Z,0.10
2018-02-20T18:23:27.671Z,0.00
2018-02-20T18:26:38.212Z,0.00
2018-02-20T18:29:48.516Z,-0.10
2018-02-20T18:32:58.313Z,-0.10
2018-02-20T18:36:08.890Z,-0.10
2018-02-20T18:39:19.326Z,-0.20
2018-02-20T18:42:29.517Z,-0.20
2018-02-20T18:45:39.777Z,-0.30
2018-02-20T18:48:49.679Z,-0.30
2018-02-20T18:51:59.531Z,-0.30
2018-02-20T18:55:09.851Z,-0.30
2018-02-20T18:58:19.996Z,-0.40
2018-02-20T19:01:29.884Z,-0.40
2018-02-20T19:04:40.820Z,-0.40
2018-02-20T19:07:51.708Z,-0.50
2018-02-20T19:11:02.336Z,-0.50
2018-02-20T19:14:12.484Z,-0.50
2018-02-20T19:17:23.617Z,-0.60
2018-02-20T19:20:34.077Z,-0.60
2018-02-20T19:23:44.370Z,-0.60
2018-02-20T19:26:54.759Z,-0.70
2018-02-20T19:30:05.371Z,-0.80
2018-02-20T19:33:15.450Z,-0.80
2018-02-20T19:36:25.743Z,-0.90
2018-02-20T19:39:36.117Z,-0.90
2018-02-20T19:42:46.022Z,-1.00
2018-02-20T19:45:56.628Z,-1.10
2018-02-20T19:49:06.536Z,-1.10
2018-02-20T19:52:16.853Z,-1.10
2018-02-20T19:55:26.549Z,-1.10
2018-02-20T19:58:36.889Z,-1.10
2018-02-20T20:01:47.938Z,-1.20
2018-02-20T20:04:59.351Z,-1.30
2018-02-20T20:08:09.364Z,-1.30
2018-02-20T20:11:19.511Z,-1.40
2018-02-20T20:14:29.435Z,-1.50
2018-02-20T20:17:39.628Z,-1.70
2018-02-20T20:20:51.006Z,-1.90
2018-02-20T20:24:02.484Z,-2.00
2018-02-20T20:27:13.016Z,-2.00
2018-02-20T20:30:23.390Z,-2.00
2018-02-20T20:33:33.170Z,-2.20
2018-02-20T20:36:43.417Z,-2.20
2018-02-20T20:39:53.396Z,-2.10
2018-02-20T20:43:03.505Z,-2.10
2018-02-20T20:46:14.176Z,-2.30
2018-02-20T20:49:24.094Z,-2.30
2018-02-20T20:52:34.616Z,-2.30
2018-02-20T20:55:44.388Z,-2.50
2018-02-20T20:58:56.072Z,-2.40
2018-02-20T21:02:07.056Z,-2.40
2018-02-20T21:05:17.792Z,-2.40
2018-02-20T21:08:27.526Z,-2.50
2018-02-20T21:11:38.504Z,-2.50
2018-02-20T21:14:49.038Z,-2.50
2018-02-20T21:17:59.275Z,-2.40
2018-02-20T21:21:09.394Z,-2.50
2018-02-20T21:24:20.091Z,-2.50
2018-02-20T21:27:30.270Z,-2.60
2018-02-20T21:30:41.015Z,-2.60
2018-02-20T21:33:51.104Z,-2.70
2018-02-20T21:37:01.503Z,-2.70
2018-02-20T21:40:11.624Z,-2.60
2018-02-20T21:43:22.072Z,-2.70
2018-02-20T21:46:32.110Z,-2.80
2018-02-20T21:49:42.132Z,-2.90
2018-02-20T21:52:53.882Z,-2.90
2018-02-20T21:56:04.634Z,-2.90
2018-02-20T21:59:14.652Z,-2.90
2018-02-20T22:02:24.506Z,-2.90
2018-02-20T22:05:35.141Z,-2.90
2018-02-20T22:08:45.376Z,-2.90
2018-02-20T22:11:57.136Z,-3.00
2018-02-20T22:15:07.605Z,-3.00
2018-02-20T22:18:17.524Z,-3.10
2018-02-20T22:21:27.431Z,-3.10
2018-02-20T22:24:37.458Z,-3.20
2018-02-20T22:27:48.187Z,-3.20
2018-02-20T22:30:58.288Z,-3.20
2018-02-20T22:34:08.730Z,-3.30
2018-02-20T22:37:18.908Z,-3.20
2018-02-20T22:40:29.515Z,-3.30
2018-02-20T22:43:39.474Z,-3.30
2018-02-20T22:46:49.663Z,-3.40
2018-02-20T22:49:59.587Z,-3.50
2018-02-20T22:53:09.665Z,-3.50
2018-02-20T22:56:19.617Z,-3.50
2018-02-20T22:59:29.910Z,-3.60
2018-02-20T23:02:40.693Z,-3.70
2018-02-20T23:05:51.866Z,-3.60
2018-02-20T23:09:03.098Z,-3.70
2018-02-20T23:12:12.244Z,-3.70
2018-02-20T23:15:23.108Z,-3.70
2018-02-20T23:18:33.434Z,-3.70
2018-02-20T23:21:43.703Z,-3.70
2018-02-20T23:24:53.899Z,-3.60
2018-02-20T23:28:04.053Z,-3.60
2018-02-20T23:31:14.104Z,-3.60
2018-02-20T23:34:25.236Z,-3.70
2018-02-20T23:37:35.467Z,-3.60
2018-02-20T23:40:45.472Z,-3.70
2018-02-20T23:43:56.124Z,-3.80
2018-02-20T23:47:06.342Z,-3.80
2018-02-20T23:50:16.639Z,-3.80
2018-02-20T23:53:27.367Z,-3.80
2018-02-20T23:56:38.024Z,-3.80
2018-02-20T23:59:47.867Z,-3.90
